Time;durP1;ratioP1;P1;durP2;ratioP2;P2;SDS_P1;SDS_P2;PMS_P1;PMS_P2;Temp;Humidity;BMP_temperature;BMP_pressure;BME280_temperature;BME280_humidity;BME280_pressure;Samples;Min_cycle;Max_cycle;Signal;HPM_P1;HPM_P2
2022/06/19 00:00:35;;;;;;;2.50;1.80;;;;;;;24.51;25.88;101341.34;5053447;28;20033;-67
2022/06/19 00:03:07;;;;;;;3.63;2.10;;;;;;;24.41;26.26;101337.56;5053589;28;20024;-67
2022/06/19 00:05:34;;;;;;;3.63;1.70;;;;;;;24.40;26.45;101341.41;5059688;28;20506;-67
2022/06/19 00:08:01;;;;;;;3.95;2.67;;;;;;;24.59;26.28;101337.97;5073509;28;20029;-67
2022/06/19 00:10:27;;;;;;;2.53;1.70;;;;;;;24.10;27.13;101331.53;5073769;28;20028;-67
2022/06/19 00:12:53;;;;;;;4.00;2.10;;;;;;;23.50;28.91;101338.13;5064378;28;20017;-66
2022/06/19 00:15:20;;;;;;;5.45;1.98;;;;;;;23.37;28.71;101337.63;5072603;28;20623;-69
2022/06/19 00:17:46;;;;;;;3.35;2.25;;;;;;;23.38;28.24;101335.72;5077263;28;20044;-60
2022/06/19 00:20:13;;;;;;;3.30;1.80;;;;;;;23.28;29.80;101344.78;5092422;28;20032;-60
2022/06/19 00:22:39;;;;;;;2.78;2.03;;;;;;;23.33;28.78;101339.28;5076050;28;20012;-58
2022/06/19 00:25:07;;;;;;;3.08;2.00;;;;;;;23.13;28.98;101336.63;5073393;28;20040;-58
2022/06/19 00:27:41;;;;;;;5.65;2.20;;;;;;;23.20;29.19;101342.59;5090497;28;20422;-58
2022/06/19 00:30:11;;;;;;;4.15;1.80;;;;;;;23.06;29.05;101344.31;5075538;28;20028;-59
2022/06/19 00:32:37;;;;;;;3.15;2.30;;;;;;;23.16;28.58;101352.47;5074758;28;20036;-62
2022/06/19 00:35:05;;;;;;;3.40;2.38;;;;;;;23.15;29.72;101348.06;5085541;28;20176;-65
2022/06/19 00:37:33;;;;;;;3.03;2.00;;;;;;;22.68;30.60;101343.78;5064553;28;20119;-62
2022/06/19 00:40:00;;;;;;;3.90;2.20;;;;;;;22.56;29.95;101343.25;5093730;28;20028;-59
2022/06/19 00:42:28;;;;;;;3.22;1.83;;;;;;;22.40;30.46;101334.25;5091848;28;20107;-58
2022/06/19 00:44:54;;;;;;;4.85;2.00;;;;;;;22.59;31.34;101342.69;5092755;28;20506;-59
2022/06/19 00:47:26;;;;;;;2.83;1.95;;;;;;;22.46;32.31;101346.00;5080953;28;20608;-58
2022/06/19 00:50:21;;;;;;;3.15;2.22;;;;;;;22.53;32.16;101347.34;5071344;28;20024;-59
2022/06/19 00:52:48;;;;;;;5.87;2.93;;;;;;;22.66;31.86;101346.00;5064831;28;20079;-60
2022/06/19 00:55:19;;;;;;;4.55;2.03;;;;;;;22.86;32.28;101345.13;5040889;28;20124;-59
2022/06/19 00:57:51;;;;;;;3.10;2.17;;;;;;;22.67;31.89;101347.63;5071702;28;20110;-60
2022/06/19 01:00:26;;;;;;;4.78;3.15;;;;;;;22.52;32.30;101347.63;5094072;28;20020;-60
2022/06/19 01:03:12;;;;;;;;;;;;;;;22.54;32.21;101348.16;5068730;28;20024;-59
2022/06/19 01:05:42;;;;;;;3.67;2.00;;;;;;;22.15;33.05;101348.69;5058992;28;19931;-58
2022/06/19 01:08:09;;;;;;;5.50;2.05;;;;;;;22.10;33.47;101348.72;5079321;28;20060;-64
2022/06/19 01:10:41;;;;;;;3.97;2.17;;;;;;;22.16;33.83;101344.09;5071875;28;20032;-72
2022/06/19 01:13:09;;;;;;;7.15;2.47;;;;;;;22.20;32.99;101337.78;5067919;28;20024;-62
2022/06/19 01:15:37;;;;;;;3.78;1.95;;;;;;;22.24;33.90;101344.34;5072193;28;20115;-62
2022/06/19 01:18:06;;;;;;;3.58;2.05;;;;;;;22.23;33.77;101353.63;5056075;28;20052;-62
2022/06/19 01:20:34;;;;;;;4.03;2.00;;;;;;;;;;5037091;28;20409;-62
2022/06/19 01:23:16;;;;;;;3.88;1.73;;;;;;;22.02;33.46;101360.09;5046775;28;20058;-65
2022/06/19 01:25:46;;;;;;;3.88;2.30;;;;;;;21.82;34.67;101358.97;5051968;28;20119;-67
2022/06/19 01:31:21;;;;;;;4.10;2.15;;;;;;;21.68;35.49;101354.28;5052469;28;20468;-58
2022/06/19 01:33:59;;;;;;;3.20;1.92;;;;;;;21.60;35.36;101347.47;5032730;28;20048;-60
2022/06/19 01:39:57;;;;;;;3.58;2.13;;;;;;;21.39;36.23;101353.91;5069680;28;20029;-58
2022/06/19 01:42:39;;;;;;;3.80;1.75;;;;;;;21.17;36.09;101357.59;5069414;28;20477;-60
2022/06/19 01:45:10;;;;;;;5.10;1.98;;;;;;;21.16;36.08;101326.00;5052475;28;20045;-60
2022/06/19 01:47:40;;;;;;;4.57;2.30;;;;;;;21.38;36.46;101334.03;5053404;28;20503;-70
2022/06/19 01:50:21;;;;;;;3.17;1.90;;;;;;;21.34;36.77;101324.75;5053171;28;20024;-67
2022/06/19 01:53:06;;;;;;;5.18;2.28;;;;;;;21.66;35.85;101351.03;5037610;28;20112;-64
2022/06/19 01:55:35;;;;;;;;;;;;;;;21.38;35.40;101349.53;5072334;28;20473;-58
2022/06/19 01:58:18;;;;;;;3.17;2.10;;;;;;;21.23;36.17;101351.09;5068160;28;20276;-59
2022/06/19 02:00:48;;;;;;;2.60;1.75;;;;;;;21.35;35.60;101343.53;5041676;28;20021;-70
2022/06/19 02:03:31;;;;;;;4.95;2.22;;;;;;;21.68;35.62;101363.28;5049858;28;20028;-68
2022/06/19 02:06:15;;;;;;;3.90;1.77;;;;;;;21.93;34.53;101369.88;5070967;28;20032;-58
2022/06/19 02:08:50;;;;;;;5.63;2.55;;;;;;;22.06;34.63;101359.28;5053495;28;20031;-63
2022/06/19 02:11:17;;;;;;;;;;;;;;;22.20;34.14;101366.97;5069681;28;20033;-63
2022/06/19 02:13:58;;;;;;;3.33;1.95;;;;;;;22.30;33.72;101359.63;5040815;28;19921;-62
2022/06/19 02:16:37;;;;;;;3.88;2.05;;;;;;;22.55;33.14;101377.91;5040706;28;20268;-62
2022/06/19 02:19:09;;;;;;;3.33;2.03;;;;;;;22.24;34.07;101378.97;5091069;28;20023;-62
2022/06/19 02:21:39;;;;;;;6.72;2.03;;;;;;;22.52;34.11;101377.63;5058743;28;20028;-61
2022/06/19 02:24:12;;;;;;;4.05;1.98;;;;;;;22.45;34.66;101371.63;5070540;28;20032;-63
2022/06/19 02:26:40;;;;;;;8.25;2.58;;;;;;;22.78;34.26;101382.00;5074685;28;20049;-68
2022/06/19 02:29:13;;;;;;;7.25;1.95;;;;;;;22.88;33.45;101389.38;5094017;28;20526;-69
2022/06/19 02:31:41;;;;;;;3.30;1.80;;;;;;;22.34;34.03;101387.19;5072032;28;20067;-69
2022/06/19 02:34:26;;;;;;;5.50;2.33;;;;;;;22.07;35.03;101376.47;5091004;28;20024;-67
2022/06/19 02:37:17;;;;;;;3.35;1.50;;;;;;;21.96;35.55;101382.97;5083752;28;20030;-66
2022/06/19 02:40:10;;;;;;;3.25;1.92;;;;;;;22.14;35.94;101385.22;5079420;28;20434;-65
2022/06/19 02:42:44;;;;;;;4.15;1.98;;;;;;;21.97;35.51;101390.06;5071686;28;20040;-65
2022/06/19 02:45:18;;;;;;;4.50;2.20;;;;;;;21.88;36.24;101390.59;5071699;28;20036;-66
2022/06/19 02:47:45;;;;;;;3.25;1.70;;;;;;;21.91;36.16;101391.16;5079535;28;20084;-66
2022/06/19 02:50:16;;;;;;;6.30;1.95;;;;;;;21.75;36.98;101399.25;5077210;28;20103;-66
2022/06/19 02:52:42;;;;;;;5.20;1.75;;;;;;;21.87;36.85;101390.84;5079784;28;20028;-66
2022/06/19 02:55:09;;;;;;;4.55;1.98;;;;;;;21.67;37.72;101397.06;5071378;28;20036;-66
2022/06/19 02:57:36;;;;;;;4.88;2.25;;;;;;;21.10;39.17;101395.13;5070265;28;20024;-66
2022/06/19 03:00:05;;;;;;;4.97;1.95;;;;;;;20.95;39.78;101393.09;5072267;28;20074;-66
2022/06/19 03:02:32;;;;;;;7.70;1.83;;;;;;;21.03;40.01;101403.50;5071541;28;20021;-66
2022/06/19 03:05:01;;;;;;;4.90;2.05;;;;;;;20.76;40.56;101400.84;5071248;28;20557;-66
2022/06/19 03:07:29;;;;;;;6.95;1.92;;;;;;;20.89;40.59;101398.78;5079003;28;20031;-66
2022/06/19 03:09:56;;;;;;;4.07;2.00;;;;;;;20.57;41.37;101394.19;5091433;28;20388;-66
2022/06/19 03:12:23;;;;;;;5.13;2.30;;;;;;;20.41;41.82;101403.25;5091839;28;20081;-66
2022/06/19 03:14:50;;;;;;;5.60;2.05;;;;;;;20.20;42.73;101410.38;5092168;28;20028;-66
2022/06/19 03:17:19;;;;;;;7.07;2.40;;;;;;;19.87;43.42;101404.03;5091106;28;20047;-66
2022/06/19 03:19:45;;;;;;;6.00;2.70;;;;;;;19.44;44.76;101413.00;5091427;28;20435;-66
2022/06/19 03:22:12;;;;;;;6.28;2.58;;;;;;;19.07;45.63;101410.00;5091679;28;20020;-66
2022/06/19 03:24:39;;;;;;;5.57;2.17;;;;;;;19.05;46.25;101412.97;5093936;28;20058;-66
2022/06/19 03:27:06;;;;;;;7.03;2.50;;;;;;;18.61;47.13;101403.84;5095018;28;20031;-65
2022/06/19 03:29:33;;;;;;;5.45;2.22;;;;;;;18.45;47.72;101397.34;5092869;28;20115;-66
2022/06/19 03:31:59;;;;;;;4.68;2.03;;;;;;;18.02;48.46;101408.72;5068629;28;20090;-66
2022/06/19 03:34:26;;;;;;;6.18;2.38;;;;;;;18.01;48.54;101405.19;5072627;28;20377;-66
2022/06/19 03:36:52;;;;;;;7.80;2.65;;;;;;;17.99;48.83;101420.03;5073010;28;20451;-66
2022/06/19 03:39:18;;;;;;;8.10;2.38;;;;;;;17.76;49.36;101408.22;5083208;28;20028;-66
2022/06/19 03:41:46;;;;;;;5.07;2.40;;;;;;;17.71;49.89;101418.09;5083772;28;20116;-66
2022/06/19 03:44:12;;;;;;;4.05;2.55;;;;;;;17.95;49.04;101419.72;5086469;28;20065;-66
2022/06/19 03:46:38;;;;;;;7.30;2.22;;;;;;;17.87;49.38;101418.19;5072936;28;20485;-66
2022/06/19 03:49:05;;;;;;;8.57;2.00;;;;;;;17.65;50.17;101414.44;5073701;28;20036;-66
2022/06/19 03:51:31;;;;;;;7.10;2.95;;;;;;;17.61;50.20;101416.81;5074046;28;20028;-66
2022/06/19 03:53:58;;;;;;;6.32;2.47;;;;;;;17.51;50.23;101413.91;5084018;28;20024;-66
2022/06/19 03:56:27;;;;;;;8.35;2.60;;;;;;;17.55;50.25;101423.19;5081276;28;20036;-65
2022/06/19 03:58:54;;;;;;;7.05;2.38;;;;;;;17.24;51.42;101426.28;5082127;28;20031;-66
2022/06/19 04:01:31;;;;;;;5.18;2.45;;;;;;;16.99;51.96;101427.34;5094026;28;20035;-65
2022/06/19 04:03:58;;;;;;;3.90;2.20;;;;;;;17.06;52.12;101428.03;5093880;28;20468;-67
2022/06/19 04:06:28;;;;;;;10.80;2.35;;;;;;;17.04;52.50;101424.72;5075316;28;20596;-65
2022/06/19 04:08:55;;;;;;;5.35;2.10;;;;;;;16.94;52.65;101421.81;5073388;28;20020;-66
2022/06/19 04:11:23;;;;;;;4.60;2.08;;;;;;;16.94;52.47;101427.22;5073675;28;20024;-66
2022/06/19 04:13:52;;;;;;;5.93;2.17;;;;;;;17.08;52.20;101431.31;5073508;28;20024;-66
2022/06/19 04:16:22;;;;;;;8.02;2.33;;;;;;;17.15;52.13;101433.91;5087888;28;20047;-66
2022/06/19 04:18:50;;;;;;;5.47;2.33;;;;;;;17.06;52.76;101438.03;5068037;28;20033;-66
2022/06/19 04:21:19;;;;;;;5.63;2.22;;;;;;;17.00;52.45;101434.41;5072530;28;20021;-66
2022/06/19 04:23:46;;;;;;;6.45;2.50;;;;;;;16.86;53.03;101436.47;5073389;28;20029;-67
2022/06/19 04:26:15;;;;;;;8.05;2.13;;;;;;;16.91;52.88;101434.97;5074175;28;20089;-66
2022/06/19 04:28:42;;;;;;;6.57;2.95;;;;;;;16.72;53.76;101445.88;5073096;28;20069;-67
2022/06/19 04:31:09;;;;;;;4.28;1.95;;;;;;;16.79;53.57;101443.06;5073190;28;20126;-66
2022/06/19 04:33:41;;;;;;;8.00;2.00;;;;;;;16.75;53.64;101440.00;5090738;28;20062;-66
2022/06/19 04:36:16;;;;;;;4.85;2.38;;;;;;;16.83;52.93;101452.38;5092259;28;20440;-66
2022/06/19 04:38:44;;;;;;;5.88;2.05;;;;;;;16.97;52.56;101444.84;5077454;28;20020;-64
2022/06/19 04:41:25;;;;;;;5.13;2.15;;;;;;;16.90;52.89;101455.78;5078525;28;20044;-63
2022/06/19 04:43:53;;;;;;;5.82;2.45;;;;;;;16.86;53.12;101460.00;5073232;28;20035;-63
2022/06/19 04:46:20;;;;;;;7.25;2.20;;;;;;;16.88;53.21;101457.91;5080134;28;20036;-63
2022/06/19 04:48:47;;;;;;;5.53;2.45;;;;;;;16.58;54.17;101458.72;5071757;28;20021;-64
2022/06/19 04:51:14;;;;;;;6.15;2.20;;;;;;;16.56;54.57;101460.84;5077426;28;20025;-64
2022/06/19 04:53:40;;;;;;;10.88;2.92;;;;;;;16.66;53.87;101460.28;5074949;28;20036;-64
2022/06/19 04:56:09;;;;;;;7.50;3.00;;;;;;;16.78;53.36;101463.06;5093007;28;20080;-64
2022/06/19 04:58:35;;;;;;;9.95;2.92;;;;;;;16.60;53.77;101470.16;5078162;28;20028;-64
2022/06/19 05:01:07;;;;;;;7.68;3.05;;;;;;;16.68;53.60;101474.38;5072805;28;20020;-64
2022/06/19 05:03:33;;;;;;;7.30;2.70;;;;;;;16.82;53.42;101472.31;5073079;28;20032;-64
2022/06/19 05:05:59;;;;;;;7.15;2.90;;;;;;;16.66;53.90;101475.66;5074065;28;20060;-64
2022/06/19 05:08:25;;;;;;;6.70;2.22;;;;;;;16.59;54.12;101476.59;5093049;28;20028;-64
2022/06/19 05:10:51;;;;;;;6.43;2.40;;;;;;;16.66;53.50;101486.47;5089358;22;20082;-64
2022/06/19 05:13:20;;;;;;;6.80;2.03;;;;;;;16.82;53.17;101486.69;5072672;28;20020;-64
2022/06/19 05:15:47;;;;;;;7.90;2.65;;;;;;;16.64;53.31;101487.53;5063526;28;20158;-64
2022/06/19 05:18:14;;;;;;;6.65;2.28;;;;;;;16.72;53.27;101480.19;5051772;28;20029;-64
2022/06/19 05:20:40;;;;;;;5.05;2.38;;;;;;;16.54;53.32;101487.25;5039119;28;20029;-64
2022/06/19 05:23:08;;;;;;;5.25;2.17;;;;;;;16.48;53.72;101500.88;5053004;28;20374;-64
2022/06/19 05:25:34;;;;;;;5.05;2.25;;;;;;;16.33;53.93;101502.13;5052135;28;20037;-64
2022/06/19 05:28:01;;;;;;;4.72;2.10;;;;;;;16.44;53.69;101511.31;5060815;28;20032;-64
2022/06/19 05:30:27;;;;;;;6.00;2.15;;;;;;;16.41;53.70;101500.97;5072058;28;20506;-64
2022/06/19 05:32:53;;;;;;;5.85;2.60;;;;;;;16.40;53.80;101498.50;5072132;28;20023;-64
2022/06/19 05:35:20;;;;;;;6.82;1.98;;;;;;;16.50;53.36;101493.38;5068779;28;20416;-64
2022/06/19 05:37:48;;;;;;;6.15;2.10;;;;;;;16.57;53.24;101496.81;5071600;28;20145;-65
2022/06/19 05:40:15;;;;;;;6.53;2.30;;;;;;;16.50;53.35;101493.38;5066672;28;20107;-64
2022/06/19 05:42:41;;;;;;;5.07;2.42;;;;;;;16.56;53.30;101493.28;5052128;28;20029;-64
2022/06/19 05:45:08;;;;;;;7.20;2.50;;;;;;;16.55;53.14;101485.41;5033829;28;20116;-64
2022/06/19 05:47:34;;;;;;;7.13;3.20;;;;;;;16.65;53.11;101491.06;5052055;28;20029;-65
2022/06/19 05:50:01;;;;;;;5.72;3.58;;;;;;;16.65;52.90;101491.06;5051856;28;20049;-64
2022/06/19 05:52:27;;;;;;;5.30;3.10;;;;;;;16.63;53.56;101488.59;5051843;28;20024;-64
2022/06/19 05:54:53;;;;;;;6.57;3.45;;;;;;;16.72;53.85;101491.00;5051652;28;20108;-64
2022/06/19 05:57:23;;;;;;;10.20;3.50;;;;;;;16.59;54.32;101492.78;5066736;28;20028;-64
2022/06/19 05:59:49;;;;;;;9.55;2.63;;;;;;;16.59;54.63;101476.59;5051665;28;20044;-65
2022/06/19 06:02:21;;;;;;;6.88;2.72;;;;;;;16.70;54.83;101484.97;5051744;28;20029;-64
2022/06/19 06:04:48;;;;;;;9.18;3.13;;;;;;;16.95;55.08;101491.06;5055907;28;20024;-65
2022/06/19 06:07:14;;;;;;;7.22;2.67;;;;;;;16.75;55.49;101483.25;5068837;28;20065;-64
2022/06/19 06:09:41;;;;;;;9.52;2.92;;;;;;;16.67;55.79;101483.56;5069406;28;20027;-65
2022/06/19 06:12:08;;;;;;;8.75;3.03;;;;;;;16.54;56.46;101489.97;5030702;28;20049;-64
2022/06/19 06:14:34;;;;;;;9.15;3.25;;;;;;;16.64;56.74;101492.13;5048406;28;20072;-64
2022/06/19 06:17:00;;;;;;;7.53;2.92;;;;;;;16.57;56.88;101489.50;5047130;28;20060;-65
2022/06/19 06:19:27;;;;;;;5.15;2.50;;;;;;;16.54;57.13;101489.13;5042614;28;20108;-64
2022/06/19 06:21:53;;;;;;;7.70;2.92;;;;;;;16.63;57.66;101491.28;5048275;28;20025;-65
2022/06/19 06:24:19;;;;;;;9.38;3.50;;;;;;;16.58;57.88;101488.44;5033328;28;20400;-64
2022/06/19 06:26:46;;;;;;;8.60;2.50;;;;;;;16.49;58.03;101489.00;5032983;28;20385;-65
2022/06/19 06:29:12;;;;;;;7.35;2.63;;;;;;;16.43;58.23;101492.63;5051469;28;20025;-64
2022/06/19 06:31:38;;;;;;;9.88;2.92;;;;;;;16.44;58.17;101478.91;5042301;28;20021;-64
2022/06/19 06:34:04;;;;;;;7.63;3.15;;;;;;;16.54;58.18;101484.56;5031623;28;20108;-65
2022/06/19 06:36:31;;;;;;;7.30;2.83;;;;;;;16.40;58.42;101482.28;5034856;28;20025;-64
2022/06/19 06:38:58;;;;;;;7.10;3.13;;;;;;;16.34;58.80;101484.03;5051460;28;20025;-64
2022/06/19 06:41:24;;;;;;;6.63;2.72;;;;;;;16.30;58.94;101499.03;5051317;28;20036;-64
2022/06/19 06:43:51;;;;;;;7.03;3.05;;;;;;;16.17;58.92;101499.22;5051365;28;20025;-64
2022/06/19 06:46:20;;;;;;;9.43;3.00;;;;;;;16.32;59.01;101494.22;5050893;28;20032;-64
2022/06/19 06:48:48;;;;;;;12.85;3.70;;;;;;;16.24;59.50;101489.13;5050952;28;20396;-65
2022/06/19 06:51:18;;;;;;;6.45;2.72;;;;;;;16.09;59.41;101487.66;5051201;28;20032;-65
2022/06/19 06:53:44;;;;;;;9.18;3.17;;;;;;;16.18;59.60;101484.66;5051160;28;20037;-64
2022/06/19 06:56:11;;;;;;;10.02;3.05;;;;;;;15.94;60.63;101492.63;5032742;28;20481;-65
2022/06/19 06:58:38;;;;;;;12.15;3.45;;;;;;;15.90;60.64;101488.72;5052635;28;20021;-64
2022/06/19 07:01:15;;;;;;;7.28;2.30;;;;;;;16.13;60.22;101495.31;5055212;28;20087;-64
2022/06/19 07:03:45;;;;;;;8.88;2.78;;;;;;;16.16;60.05;101497.53;5055120;28;20108;-64
2022/06/19 07:06:12;;;;;;;6.30;2.75;;;;;;;16.11;60.23;101492.84;5053859;28;20029;-64
2022/06/19 07:08:39;;;;;;;14.25;3.67;;;;;;;16.12;60.35;101491.78;5054769;28;20051;-64
2022/06/19 07:11:05;;;;;;;6.63;2.88;;;;;;;16.16;60.43;101498.41;5048555;28;20128;-64
2022/06/19 07:13:31;;;;;;;6.00;2.53;;;;;;;16.16;60.45;101493.00;5054698;28;20029;-64
2022/06/19 07:15:58;;;;;;;9.63;2.67;;;;;;;16.06;60.56;101501.63;5054150;28;20512;-64
2022/06/19 07:18:24;;;;;;;9.60;3.63;;;;;;;15.86;61.20;101497.50;5051966;28;20025;-64
2022/06/19 07:20:50;;;;;;;9.68;3.38;;;;;;;16.03;61.01;101493.97;5054608;28;20104;-65
2022/06/19 07:23:16;;;;;;;10.30;3.08;;;;;;;16.02;61.12;101492.31;5037597;28;20025;-64
2022/06/19 07:25:43;;;;;;;8.82;3.67;;;;;;;15.92;61.32;101491.19;5034364;28;20036;-64
2022/06/19 07:28:14;;;;;;;11.55;3.90;;;;;;;15.88;61.44;101493.53;5036852;28;20041;-64
2022/06/19 07:30:42;;;;;;;9.68;3.92;;;;;;;15.73;61.68;101490.38;5034777;28;20025;-64
2022/06/19 07:33:09;;;;;;;8.48;3.67;;;;;;;15.78;61.83;101493.22;5034614;28;20378;-65
2022/06/19 07:35:35;;;;;;;7.97;3.28;;;;;;;15.71;61.72;101489.75;5034463;28;20033;-65
2022/06/19 07:38:01;;;;;;;10.07;3.65;;;;;;;15.64;61.59;101487.13;5034244;28;20551;-64
2022/06/19 07:40:27;;;;;;;12.93;4.22;;;;;;;15.56;61.00;101482.84;5034337;28;20037;-65
2022/06/19 07:42:53;;;;;;;7.82;3.05;;;;;;;15.58;60.64;101480.72;5044498;28;20033;-65
2022/06/19 07:45:20;;;;;;;10.27;3.13;;;;;;;15.70;59.80;101482.72;5053812;28;20025;-64
2022/06/19 07:50:30;;;;;;;8.05;3.40;;;;;;;15.71;59.47;101487.06;5034375;28;20037;-64
2022/06/19 07:52:56;;;;;;;10.57;3.90;;;;;;;15.66;59.39;101492.34;5034294;28;20466;-64
2022/06/19 07:55:26;;;;;;;8.48;3.80;;;;;;;15.69;59.38;101491.88;5035689;28;20037;-65
2022/06/19 07:57:54;;;;;;;10.35;4.30;;;;;;;15.66;59.59;101497.72;5045321;28;20474;-64
2022/06/19 08:00:23;;;;;;;11.02;4.13;;;;;;;15.59;59.70;101498.56;5033798;28;20033;-64
2022/06/19 08:02:52;;;;;;;9.50;4.70;;;;;;;15.44;59.95;101494.59;5034362;28;20029;-64
2022/06/19 08:05:20;;;;;;;11.65;4.90;;;;;;;15.42;60.24;101491.28;5035241;28;20030;-64
2022/06/19 08:07:46;;;;;;;9.73;4.15;;;;;;;15.38;60.43;101490.91;5047142;28;20029;-64
2022/06/19 08:10:32;;;;;;;12.50;4.55;;;;;;;15.32;60.57;101483.69;5051932;28;20502;-64
2022/06/19 08:12:59;;;;;;;11.73;4.13;;;;;;;15.42;60.52;101492.09;5038550;28;20493;-64
2022/06/19 08:15:26;;;;;;;12.80;4.85;;;;;;;15.39;60.76;101481.75;5033471;28;20176;-65
2022/06/19 08:17:53;;;;;;;16.77;5.68;;;;;;;15.36;60.77;101492.97;5034951;28;20036;-64
2022/06/19 08:20:20;;;;;;;10.98;4.95;;;;;;;15.24;61.10;101487.50;5033921;28;20343;-64
2022/06/19 08:22:47;;;;;;;8.02;4.45;;;;;;;15.25;61.07;101493.72;5045352;28;20025;-64
2022/06/19 08:25:16;;;;;;;6.97;4.20;;;;;;;15.05;61.76;101494.72;5053463;28;20048;-64
2022/06/19 08:27:47;;;;;;;9.48;4.30;;;;;;;15.09;61.43;101488.88;5052341;28;20037;-65
2022/06/19 08:30:17;;;;;;;12.27;4.75;;;;;;;15.27;61.43;101497.84;5053276;28;20370;-65
2022/06/19 08:32:43;;;;;;;17.15;5.00;;;;;;;15.29;62.16;101495.75;5043621;28;20224;-64
2022/06/19 08:35:09;;;;;;;11.07;5.07;;;;;;;15.24;62.15;101489.38;5033447;28;20021;-65
2022/06/19 08:37:38;;;;;;;13.25;5.43;;;;;;;15.20;62.20;101499.75;5041744;28;20031;-65
2022/06/19 08:40:41;;;;;;;15.38;5.43;;;;;;;15.27;62.21;101494.34;5053250;28;20025;-65
2022/06/19 08:43:22;;;;;;;11.95;4.30;;;;;;;15.19;62.18;101500.81;5051962;28;20029;-65
2022/06/19 08:46:22;;;;;;;13.25;4.80;;;;;;;15.05;63.21;101502.81;5052785;28;20154;-65
2022/06/19 08:49:15;;;;;;;13.05;4.30;;;;;;;15.10;63.18;101498.59;5035931;28;20206;-64
2022/06/19 08:52:11;;;;;;;20.92;4.45;;;;;;;14.99;63.66;101509.06;5033012;28;20025;-65
2022/06/19 08:54:49;;;;;;;7.63;4.70;;;;;;;15.00;63.70;101509.91;5032925;28;20021;-64
2022/06/19 08:57:34;;;;;;;9.60;4.57;;;;;;;14.80;64.23;101510.03;5032782;28;20037;-64
2022/06/19 09:00:06;;;;;;;12.43;4.75;;;;;;;14.87;64.21;101505.41;5050277;28;20035;-65
2022/06/19 09:02:51;;;;;;;10.70;4.28;;;;;;;14.74;64.36;101500.13;5052157;28;20025;-64
2022/06/19 09:09:00;;;;;;;10.15;4.65;;;;;;;14.68;65.03;101511.75;5050806;28;20182;-65
2022/06/19 09:11:29;;;;;;;9.38;4.45;;;;;;;14.60;65.74;101509.31;5035396;28;20508;-65
2022/06/19 09:14:12;;;;;;;14.75;4.85;;;;;;;14.59;65.53;101513.06;5053005;28;20036;-65
2022/06/19 09:16:53;;;;;;;14.85;4.95;;;;;;;14.52;65.82;101508.53;5051511;28;20104;-64
2022/06/19 09:19:33;;;;;;;11.02;4.50;;;;;;;14.59;65.57;101508.50;5052442;28;20068;-65
2022/06/19 09:22:37;;;;;;;12.57;4.00;;;;;;;14.68;64.76;101512.59;5047036;28;20060;-65
2022/06/19 09:25:14;;;;;;;10.30;4.07;;;;;;;14.52;65.87;101505.84;5032487;28;20478;-65
2022/06/19 09:28:05;;;;;;;14.90;3.95;;;;;;;14.56;65.91;101503.56;5037407;28;20111;-65
2022/06/19 09:30:48;;;;;;;19.23;4.00;;;;;;;14.65;65.48;101501.41;5014715;28;20021;-64
2022/06/19 09:33:36;;;;;;;9.90;3.85;;;;;;;14.66;65.67;101497.69;5028290;28;20029;-65
2022/06/19 09:36:02;;;;;;;12.68;4.05;;;;;;;14.49;65.97;101495.50;5051769;28;20025;-65
2022/06/19 09:38:43;;;;;;;10.32;3.78;;;;;;;14.49;65.97;101503.59;5050352;28;20492;-65
2022/06/19 09:41:17;;;;;;;10.63;3.42;;;;;;;14.55;66.05;101492.97;5033204;28;20039;-64
2022/06/19 09:44:20;;;;;;;13.30;3.97;;;;;;;14.55;65.91;101491.13;5051197;28;20037;-65
2022/06/19 09:47:09;;;;;;;16.20;4.65;;;;;;;14.50;66.05;101499.03;5050835;28;20037;-65
2022/06/19 09:49:47;;;;;;;16.05;4.07;;;;;;;14.43;66.31;101504.41;5051867;28;20029;-65
2022/06/19 09:52:27;;;;;;;14.13;3.58;;;;;;;14.44;66.43;101500.69;5051041;28;20025;-65
2022/06/19 09:55:10;;;;;;;10.65;3.95;;;;;;;14.43;66.88;101509.78;5051635;28;20032;-65
2022/06/19 09:57:43;;;;;;;12.00;3.40;;;;;;;14.43;66.69;101503.56;5049971;28;20028;-65
2022/06/19 10:00:21;;;;;;;11.27;3.85;;;;;;;14.37;66.86;101504.44;5050773;28;20028;-64
2022/06/19 10:02:50;;;;;;;12.70;3.90;;;;;;;14.19;67.47;101502.44;5051862;28;20025;-65
2022/06/19 10:05:42;;;;;;;9.38;3.70;;;;;;;14.28;67.02;101509.25;5034315;28;20075;-65
2022/06/19 10:08:36;;;;;;;12.10;3.88;;;;;;;14.26;67.02;101512.13;5021660;28;20045;-64
2022/06/19 10:11:14;;;;;;;12.77;4.18;;;;;;;14.42;66.69;101516.22;5038429;28;20057;-64
2022/06/19 10:13:46;;;;;;;11.63;3.63;;;;;;;14.31;66.63;101506.13;5035743;28;20615;-64
2022/06/19 10:16:27;;;;;;;14.20;3.83;;;;;;;14.19;66.98;101518.59;5051147;28;20560;-64
2022/06/19 10:18:55;;;;;;;12.00;4.00;;;;;;;14.17;66.86;101520.69;5050904;28;20159;-64
2022/06/19 10:24:40;;;;;;;11.23;4.00;;;;;;;14.28;66.84;101528.09;5049826;28;20086;-64
2022/06/19 10:27:31;;;;;;;11.15;3.70;;;;;;;14.30;66.52;101526.00;5051067;28;20033;-64
2022/06/19 10:30:05;;;;;;;11.63;4.07;;;;;;;14.27;66.37;101526.47;5050710;28;20452;-65
2022/06/19 10:33:08;;;;;;;13.95;4.43;;;;;;;14.18;66.37;101533.13;5038568;28;20021;-65
2022/06/19 10:35:58;;;;;;;13.57;4.40;;;;;;;14.18;66.07;101533.13;5034672;28;20497;-64
2022/06/19 10:38:36;;;;;;;17.67;3.88;;;;;;;14.12;66.25;101532.09;5049303;28;20443;-64
2022/06/19 10:44:45;;;;;;;10.05;3.22;;;;;;;13.96;67.01;101528.00;5035489;28;20048;-64
2022/06/19 10:47:39;;;;;;;14.75;3.92;;;;;;;13.83;66.85;101530.75;5018101;28;20056;-64
2022/06/19 10:50:27;;;;;;;11.32;4.07;;;;;;;13.83;67.06;101540.69;5044952;28;20036;-65
2022/06/19 10:53:34;;;;;;;12.55;3.33;;;;;;;13.95;66.40;101534.44;5037979;28;20381;-64
2022/06/19 10:56:04;;;;;;;;;;;;;;;13.91;66.23;101543.94;5035266;28;20432;-65
2022/06/19 10:58:31;;;;;;;12.20;3.45;;;;;;;13.87;66.22;101544.56;5034251;28;19913;-65
2022/06/19 11:01:07;;;;;;;8.07;3.20;;;;;;;13.87;66.55;101549.97;5034936;28;20021;-65
2022/06/19 11:07:05;;;;;;;9.38;3.80;;;;;;;13.62;67.28;101550.63;5034823;28;20417;-65
2022/06/19 11:09:46;;;;;;;13.27;3.90;;;;;;;13.32;67.92;101544.84;5042105;28;20455;-65
2022/06/19 11:12:12;;;;;;;13.98;3.67;;;;;;;13.53;67.12;101551.06;5054826;28;20049;-65
2022/06/19 11:15:09;;;;;;;7.88;3.30;;;;;;;13.70;66.29;101553.09;5056594;28;20025;-65
2022/06/19 11:17:40;;;;;;;9.65;3.60;;;;;;;13.69;66.32;101553.31;5039122;28;20058;-64
2022/06/19 11:20:27;;;;;;;12.20;3.40;;;;;;;13.71;65.79;101562.84;5070274;28;20025;-64
2022/06/19 11:23:23;;;;;;;10.32;3.00;;;;;;;13.58;66.42;101554.75;5054812;28;20106;-65
2022/06/19 11:26:00;;;;;;;;;;;;;;;13.57;66.34;101563.88;5056655;28;20139;-64
2022/06/19 11:28:44;;;;;;;8.65;3.67;;;;;;;13.63;65.86;101556.84;5074525;28;19923;-64
2022/06/19 11:31:18;;;;;;;14.10;3.75;;;;;;;13.64;65.70;101559.31;5074335;28;20028;-64
2022/06/19 11:33:47;;;;;;;11.77;3.47;;;;;;;13.60;65.59;101565.31;5074268;28;20082;-66
2022/06/19 11:36:52;;;;;;;8.80;3.20;;;;;;;13.71;65.30;101564.69;5053754;28;20031;-65
2022/06/19 11:39:40;;;;;;;11.98;3.10;;;;;;;13.76;65.19;101572.94;4992892;28;20550;-65
2022/06/19 11:42:34;;;;;;;11.32;3.63;;;;;;;13.72;65.39;101564.50;4992684;28;20027;-65
2022/06/19 11:45:15;;;;;;;9.57;3.28;;;;;;;13.61;65.69;101569.69;5059035;28;20080;-64
2022/06/19 11:47:55;;;;;;;8.98;3.00;;;;;;;13.58;65.44;101570.09;5074077;28;20025;-64
2022/06/19 11:50:37;;;;;;;9.63;3.83;;;;;;;13.57;65.21;101569.25;5074147;28;20389;-65
2022/06/19 11:53:40;;;;;;;9.02;3.20;;;;;;;13.77;65.16;101571.09;5074178;28;20426;-65
2022/06/19 11:56:21;;;;;;;6.93;3.47;;;;;;;13.74;65.34;101564.28;5053774;28;20029;-64
2022/06/19 11:59:27;;;;;;;8.38;2.78;;;;;;;13.60;65.43;101571.53;5054145;28;20025;-65
2022/06/19 12:01:53;;;;;;;15.18;3.97;;;;;;;13.70;65.13;101576.47;5051526;28;20044;-65
2022/06/19 12:04:40;;;;;;;9.15;3.60;;;;;;;13.65;65.24;101578.97;5053837;28;20040;-64
2022/06/19 12:07:18;;;;;;;13.77;3.78;;;;;;;13.68;65.61;101573.19;5064483;28;20485;-64
2022/06/19 12:09:55;;;;;;;10.07;2.65;;;;;;;13.63;65.59;101584.56;5065057;28;20024;-64
2022/06/19 12:12:22;;;;;;;16.35;3.75;;;;;;;13.51;65.88;101590.78;5049413;28;20033;-64